Time;durP1;ratioP1;P1;durP2;ratioP2;P2;SDS_P1;SDS_P2;PMS_P1;PMS_P2;Temp;Humidity;BMP_temperature;BMP_pressure;BME280_temperature;BME280_humidity;BME280_pressure;Samples;Min_cycle;Max_cycle;Signal;HPM_P1;HPM_P2
2022/01/04 00:01:08;;;;;;;;;;;15.20;99.10;;;;;;5041485;28;19917;-67
2022/01/04 00:03:34;;;;;;;;;;;14.90;99.10;;;;;;5047342;28;19921;-67
2022/01/04 00:06:00;;;;;;;;;;;15.30;99.10;;;;;;5042215;28;19925;-67
2022/01/04 00:08:26;;;;;;;;;;;15.10;99.10;;;;;;5051760;28;20102;-67
2022/01/04 00:11:04;;;;;;;;;;;15.10;99.10;;;;;;5026838;28;19944;-61
2022/01/04 00:13:30;;;;;;;;;;;15.10;99.10;;;;;;5041096;28;19931;-61
2022/01/04 00:15:56;;;;;;;;;;;;;;;;;;5050663;28;20375;-62
2022/01/04 00:18:22;;;;;;;;;;;;;;;;;;5049073;28;20370;-63
2022/01/04 00:20:48;;;;;;;;;;;15.00;99.00;;;;;;5042514;28;19927;-61
2022/01/04 00:23:14;;;;;;;;;;;15.00;99.00;;;;;;5060002;28;19920;-67
2022/01/04 00:25:39;;;;;;;;;;;15.30;99.00;;;;;;5066837;28;19975;-62
2022/01/04 00:28:07;;;;;;;;;;;14.90;98.90;;;;;;5045553;28;19921;-61
2022/01/04 00:30:33;;;;;;;;;;;15.30;99.00;;;;;;5026574;28;19921;-62
2022/01/04 00:32:59;;;;;;;;;;;15.20;99.00;;;;;;5041532;28;19944;-67
2022/01/04 00:35:25;;;;;;;;;;;15.30;99.00;;;;;;5055118;28;19920;-67
2022/01/04 00:37:50;;;;;;;;;;;15.30;99.00;;;;;;5056784;28;20377;-67
2022/01/04 00:40:16;;;;;;;;;;;15.10;99.00;;;;;;5071703;28;20003;-62
2022/01/04 00:42:42;;;;;;;;;;;15.00;98.90;;;;;;5054842;28;20385;-62
2022/01/04 00:45:07;;;;;;;;;;;15.20;98.90;;;;;;5047805;28;19927;-61
2022/01/04 00:49:09;;;;;;;;;;;;;;;;;;5053384;28;19928;-63
2022/01/04 00:50:28;;;;;;;;;;;15.20;98.90;;;;;;5054384;28;19974;-62
2022/01/04 00:52:54;;;;;;;;;;;15.30;98.90;;;;;;5049260;28;20004;-68
2022/01/04 00:55:20;;;;;;;;;;;;;;;;;;5052999;28;20271;-67
2022/01/04 00:57:46;;;;;;;;;;;15.10;98.80;;;;;;5039315;28;20452;-67
2022/01/04 01:00:12;;;;;;;;;;;15.20;98.90;;;;;;5046453;28;19951;-67
2022/01/04 01:02:38;;;;;;;;;;;15.10;98.80;;;;;;5052360;28;19928;-66
2022/01/04 01:05:03;;;;;;;;;;;15.00;98.80;;;;;;5050437;28;19924;-67
2022/01/04 01:07:29;;;;;;;;;;;15.20;98.80;;;;;;5049219;28;19990;-67
2022/01/04 01:12:47;;;;;;;;;;;15.10;98.80;;;;;;5031026;28;20263;-61
2022/01/04 01:15:12;;;;;;;;;;;15.00;98.80;;;;;;5042097;28;20011;-67
2022/01/04 01:17:38;;;;;;;;;;;15.00;98.80;;;;;;5045792;28;19946;-62
2022/01/04 01:20:04;;;;;;;;;;;15.30;98.80;;;;;;5053882;28;20454;-62
2022/01/04 01:22:30;;;;;;;;;;;15.00;98.80;;;;;;5039169;28;19924;-62
2022/01/04 01:24:55;;;;;;;;;;;15.10;98.80;;;;;;5039363;28;19928;-67
2022/01/04 01:27:21;;;;;;;;;;;15.10;98.70;;;;;;5038731;28;19928;-61
2022/01/04 01:29:47;;;;;;;;;;;;;;;;;;5031628;28;20405;-67
2022/01/04 01:32:12;;;;;;;;;;;14.80;98.70;;;;;;5046335;28;19920;-67
2022/01/04 01:34:38;;;;;;;;;;;15.30;98.80;;;;;;5047353;28;19920;-66
2022/01/04 01:37:04;;;;;;;;;;;15.00;98.70;;;;;;5052943;28;19921;-67
2022/01/04 01:39:29;;;;;;;;;;;14.90;98.70;;;;;;5041267;28;20393;-67
2022/01/04 01:41:55;;;;;;;;;;;;;;;;;;5035445;28;20386;-63
2022/01/04 01:44:21;;;;;;;;;;;15.00;98.70;;;;;;5047618;28;20066;-62
2022/01/04 01:46:47;;;;;;;;;;;15.10;98.70;;;;;;5028412;28;20370;-62
2022/01/04 01:49:12;;;;;;;;;;;15.20;98.80;;;;;;5040480;28;20007;-62
2022/01/04 01:51:38;;;;;;;;;;;15.30;98.80;;;;;;5030250;28;20437;-62
2022/01/04 01:54:04;;;;;;;;;;;15.20;98.80;;;;;;5044107;28;19916;-63
2022/01/04 01:56:29;;;;;;;;;;;15.10;98.70;;;;;;5051957;28;19983;-61
2022/01/04 01:58:58;;;;;;;;;;;15.10;98.70;;;;;;5044085;28;20707;-63
2022/01/04 02:01:24;;;;;;;;;;;15.10;98.70;;;;;;5037804;28;20016;-62
2022/01/04 02:03:49;;;;;;;;;;;15.20;98.70;;;;;;5037726;28;19964;-62
2022/01/04 02:06:15;;;;;;;;;;;;;;;;;;5033840;28;19999;-62
2022/01/04 02:08:41;;;;;;;;;;;15.20;98.60;;;;;;5046599;28;19947;-62
2022/01/04 02:11:06;;;;;;;;;;;15.20;98.70;;;;;;5034324;28;20326;-61
2022/01/04 02:13:32;;;;;;;;;;;15.00;98.60;;;;;;5046647;28;20008;-62
2022/01/04 02:15:58;;;;;;;;;;;15.00;98.60;;;;;;5049752;28;19920;-62
2022/01/04 02:18:23;;;;;;;;;;;15.10;98.60;;;;;;5035903;28;19917;-62
2022/01/04 02:20:49;;;;;;;;;;;15.10;98.60;;;;;;5048116;28;20015;-61
2022/01/04 02:23:14;;;;;;;;;;;15.40;98.70;;;;;;5050329;28;19927;-62
2022/01/04 02:25:40;;;;;;;;;;;;;;;;;;5040473;28;19940;-67
2022/01/04 02:28:06;;;;;;;;;;;15.30;98.70;;;;;;5034804;28;19928;-67
2022/01/04 02:30:32;;;;;;;;;;;15.10;98.70;;;;;;5038417;28;19921;-67
2022/01/04 02:32:59;;;;;;;;;;;14.90;98.60;;;;;;5052278;28;19928;-67
2022/01/04 02:35:25;;;;;;;;;;;;;;;;;;5052426;28;19928;-64
2022/01/04 02:37:54;;;;;;;;;;;15.10;98.60;;;;;;5043301;28;19925;-62
2022/01/04 02:40:20;;;;;;;;;;;15.10;98.60;;;;;;5052974;28;19947;-61
2022/01/04 02:42:45;;;;;;;;;;;15.10;98.70;;;;;;5052263;28;20019;-67
2022/01/04 02:45:11;;;;;;;;;;;15.20;98.70;;;;;;5025283;28;20015;-67
2022/01/04 02:47:37;;;;;;;;;;;;;;;;;;5052552;28;19928;-67
2022/01/04 02:50:03;;;;;;;;;;;15.10;98.60;;;;;;5043151;28;19928;-67
2022/01/04 02:52:29;;;;;;;;;;;15.30;98.70;;;;;;5057011;28;19944;-68
2022/01/04 02:54:54;;;;;;;;;;;15.20;98.60;;;;;;5041147;28;19921;-67
2022/01/04 02:57:20;;;;;;;;;;;15.10;98.60;;;;;;5044570;28;19925;-67
2022/01/04 02:59:46;;;;;;;;;;;;;;;;;;5051324;28;19921;-67
2022/01/04 03:02:12;;;;;;;;;;;15.20;98.60;;;;;;5054836;28;19921;-68
2022/01/04 03:04:37;;;;;;;;;;;15.10;98.60;;;;;;5056002;28;20283;-67
2022/01/04 03:07:03;;;;;;;;;;;15.20;98.60;;;;;;5037895;28;19927;-62
2022/01/04 03:09:29;;;;;;;;;;;15.40;98.60;;;;;;5029433;28;19921;-66
2022/01/04 03:11:56;;;;;;;;;;;15.20;98.60;;;;;;5056272;28;20015;-62
2022/01/04 03:14:22;;;;;;;;;;;;;;;;;;5022898;28;19917;-63
2022/01/04 03:16:48;;;;;;;;;;;;;;;;;;5049327;28;20313;-64
2022/01/04 03:19:14;;;;;;;;;;;;;;;;;;5054438;28;19916;-65
2022/01/04 03:21:40;;;;;;;;;;;15.00;98.70;;;;;;5034327;28;20395;-64
2022/01/04 03:24:06;;;;;;;;;;;15.30;98.70;;;;;;5050692;28;19921;-62
2022/01/04 03:26:32;;;;;;;;;;;15.00;98.60;;;;;;5049781;28;19916;-61
2022/01/04 03:28:58;;;;;;;;;;;15.20;98.70;;;;;;5053709;28;19927;-61
2022/01/04 03:31:24;;;;;;;;;;;15.10;98.70;;;;;;5054584;28;20015;-63
2022/01/04 03:33:49;;;;;;;;;;;15.00;98.60;;;;;;5032274;28;20436;-62
2022/01/04 03:36:15;;;;;;;;;;;15.00;98.60;;;;;;5045000;28;19925;-67
2022/01/04 03:38:41;;;;;;;;;;;;;;;;;;5046773;28;20004;-64
2022/01/04 03:41:08;;;;;;;;;;;14.90;98.60;;;;;;5055146;28;19921;-62
2022/01/04 03:43:33;;;;;;;;;;;15.20;98.60;;;;;;5048983;28;20702;-64
2022/01/04 03:45:59;;;;;;;;;;;15.20;98.70;;;;;;5036141;28;19921;-62
2022/01/04 03:48:25;;;;;;;;;;;15.00;98.60;;;;;;5041215;28;20390;-62
2022/01/04 03:50:50;;;;;;;;;;;15.10;98.60;;;;;;5048881;28;20413;-61
2022/01/04 03:53:16;;;;;;;;;;;15.20;98.60;;;;;;5048504;28;19967;-61
2022/01/04 03:55:41;;;;;;;;;;;14.90;98.50;;;;;;5055217;28;19924;-63
2022/01/04 03:58:08;;;;;;;;;;;;;;;;;;5054590;28;19921;-62
2022/01/04 04:00:33;;;;;;;;;;;15.20;98.20;;;;;;5054586;28;20405;-64
2022/01/04 04:02:59;;;;;;;;;;;14.80;98.50;;;;;;5030684;28;19920;-62
2022/01/04 04:05:24;;;;;;;;;;;15.10;98.60;;;;;;5041566;28;19920;-62
2022/01/04 04:07:50;;;;;;;;;;;;;;;;;;5050347;28;20420;-63
2022/01/04 04:10:16;;;;;;;;;;;15.20;98.60;;;;;;5024221;28;19921;-62
2022/01/04 04:12:42;;;;;;;;;;;;;;;;;;5036911;28;19928;-64
2022/01/04 04:15:08;;;;;;;;;;;15.10;98.60;;;;;;5035284;28;20386;-62
2022/01/04 04:17:35;;;;;;;;;;;15.00;98.60;;;;;;5007206;28;19921;-62
2022/01/04 04:20:00;;;;;;;;;;;15.00;98.60;;;;;;5028219;28;19925;-62
2022/01/04 04:22:26;;;;;;;;;;;;;;;;;;5038293;28;19921;-63
2022/01/04 04:24:52;;;;;;;;;;;15.10;98.60;;;;;;5048892;28;20374;-62
2022/01/04 04:27:17;;;;;;;;;;;14.90;98.50;;;;;;5024631;28;19921;-61
2022/01/04 04:29:43;;;;;;;;;;;;;;;;;;5035781;28;19921;-62
2022/01/04 04:32:10;;;;;;;;;;;14.80;98.50;;;;;;5040685;28;20007;-62
2022/01/04 04:34:36;;;;;;;;;;;15.10;98.50;;;;;;5045794;28;19940;-66
2022/01/04 04:37:02;;;;;;;;;;;14.90;98.50;;;;;;5035197;28;19921;-67
2022/01/04 04:39:27;;;;;;;;;;;15.10;98.60;;;;;;5045731;28;20271;-67
2022/01/04 04:41:53;;;;;;;;;;;15.10;98.50;;;;;;5052260;28;19936;-62
2022/01/04 04:44:18;;;;;;;;;;;14.90;98.40;;;;;;5027601;28;19975;-62
2022/01/04 04:46:44;;;;;;;;;;;15.20;98.60;;;;;;5034668;28;19953;-62
2022/01/04 04:49:10;;;;;;;;;;;;;;;;;;5045989;28;19925;-64
2022/01/04 04:51:36;;;;;;;;;;;15.00;98.50;;;;;;5036721;28;19920;-62
2022/01/04 04:54:02;;;;;;;;;;;15.00;98.50;;;;;;5051943;28;19927;-63
2022/01/04 04:56:27;;;;;;;;;;;14.80;98.50;;;;;;5049717;28;19928;-62
2022/01/04 04:58:53;;;;;;;;;;;14.90;98.50;;;;;;5049793;28;19920;-61
2022/01/04 05:01:18;;;;;;;;;;;15.30;98.60;;;;;;5053585;28;20309;-61
2022/01/04 05:03:44;;;;;;;;;;;;;;;;;;5053439;28;19928;-63
2022/01/04 05:06:10;;;;;;;;;;;14.90;98.50;;;;;;5035566;28;20401;-62
2022/01/04 05:08:36;;;;;;;;;;;15.00;98.50;;;;;;5040834;28;19920;-61
2022/01/04 05:11:02;;;;;;;;;;;15.10;98.60;;;;;;5054461;28;19982;-62
2022/01/04 05:13:28;;;;;;;;;;;15.00;98.50;;;;;;5030080;28;19925;-62
2022/01/04 05:15:53;;;;;;;;;;;15.10;98.60;;;;;;5047668;28;19921;-62
2022/01/04 05:18:19;;;;;;;;;;;15.30;98.60;;;;;;5046455;28;19928;-61
2022/01/04 05:20:45;;;;;;;;;;;14.80;98.50;;;;;;5033262;28;20008;-62
2022/01/04 05:23:10;;;;;;;;;;;15.00;98.50;;;;;;5038266;28;20454;-62
2022/01/04 05:25:36;;;;;;;;;;;15.30;98.60;;;;;;5053398;28;19966;-61
2022/01/04 05:28:01;;;;;;;;;;;15.00;98.50;;;;;;5045028;28;19973;-62
2022/01/04 05:30:27;;;;;;;;;;;15.20;98.60;;;;;;5030341;28;20367;-61
2022/01/04 05:32:53;;;;;;;;;;;15.10;98.50;;;;;;5040633;28;19921;-67
2022/01/04 05:35:18;;;;;;;;;;;15.00;98.50;;;;;;5048870;28;19920;-67
2022/01/04 05:37:44;;;;;;;;;;;15.20;98.60;;;;;;5018855;28;19994;-67
2022/01/04 05:40:10;;;;;;;;;;;15.30;98.50;;;;;;5037321;28;19925;-67
2022/01/04 05:42:35;;;;;;;;;;;15.10;98.50;;;;;;5033205;28;19999;-67
2022/01/04 05:45:01;;;;;;;;;;;15.00;98.50;;;;;;5035513;28;19921;-67
2022/01/04 05:47:27;;;;;;;;;;;;;;;;;;5035714;28;19921;-63
2022/01/04 05:49:53;;;;;;;;;;;;;;;;;;5041088;28;20470;-63
2022/01/04 05:52:19;;;;;;;;;;;15.10;98.40;;;;;;5044927;28;19960;-64
2022/01/04 05:54:46;;;;;;;;;;;15.00;98.40;;;;;;5044608;28;19967;-65
2022/01/04 05:57:11;;;;;;;;;;;15.10;98.40;;;;;;5039627;28;19967;-62
2022/01/04 05:59:37;;;;;;;;;;;15.30;98.40;;;;;;5042753;28;20379;-63
2022/01/04 06:02:03;;;;;;;;;;;;;;;;;;5039954;28;20301;-64
2022/01/04 06:04:29;;;;;;;;;;;15.30;98.40;;;;;;5023329;28;20362;-64
2022/01/04 06:06:55;;;;;;;;;;;15.30;98.50;;;;;;5041076;28;19974;-61
2022/01/04 06:09:28;;;;;;;;;;;15.20;98.40;;;;;;5044031;28;20016;-62
2022/01/04 06:17:04;;;;;;;;;;;;;;;;;;5057102;28;20011;-65
2022/01/04 06:19:30;;;;;;;;;;;15.30;98.30;;;;;;5062554;28;19929;-63
2022/01/04 06:21:55;;;;;;;;;;;15.20;98.30;;;;;;5058513;28;20359;-67
2022/01/04 06:24:21;;;;;;;;;;;;;;;;;;5059161;28;20278;-67
2022/01/04 06:26:47;;;;;;;;;;;15.10;98.40;;;;;;5064776;28;20278;-68
2022/01/04 06:29:14;;;;;;;;;;;;;;;;;;5063467;28;19925;-65
2022/01/04 06:31:40;;;;;;;;;;;15.20;98.30;;;;;;5058160;28;20046;-63
2022/01/04 06:34:05;;;;;;;;;;;15.30;98.40;;;;;;5038918;28;19928;-67
2022/01/04 06:36:31;;;;;;;;;;;15.00;98.30;;;;;;5055677;28;19924;-65
2022/01/04 06:38:57;;;;;;;;;;;15.30;98.50;;;;;;5058925;28;19963;-66
2022/01/04 06:41:23;;;;;;;;;;;;;;;;;;5053079;28;20393;-68
2022/01/04 06:43:49;;;;;;;;;;;;;;;;;;5043288;28;20290;-69
2022/01/04 06:46:16;;;;;;;;;;;15.20;98.20;;;;;;5044910;28;19921;-68
2022/01/04 06:48:43;;;;;;;;;;;;;;;;;;5042378;28;19970;-64
2022/01/04 06:51:09;;;;;;;;;;;15.30;98.00;;;;;;5043150;28;20410;-64
2022/01/04 06:53:36;;;;;;;;;;;;;;;;;;5043142;28;19971;-63
2022/01/04 06:56:02;;;;;;;;;;;;;;;;;;5042440;28;20492;-65
2022/01/04 06:58:28;;;;;;;;;;;15.10;98.10;;;;;;5026874;28;19921;-62
2022/01/04 07:00:54;;;;;;;;;;;15.20;98.10;;;;;;5042700;28;19917;-63
2022/01/04 07:03:19;;;;;;;;;;;15.30;98.10;;;;;;5044892;28;19925;-63
2022/01/04 07:05:45;;;;;;;;;;;;;;;;;;5042878;28;19924;-66
2022/01/04 07:08:11;;;;;;;;;;;15.00;97.80;;;;;;5042603;28;20349;-62
2022/01/04 07:10:37;;;;;;;;;;;15.20;98.00;;;;;;5046094;28;19921;-63
2022/01/04 07:13:02;;;;;;;;;;;15.20;98.10;;;;;;5036978;28;20300;-65
2022/01/04 07:15:28;;;;;;;;;;;15.00;98.10;;;;;;5057466;28;19929;-61
2022/01/04 07:17:54;;;;;;;;;;;15.10;98.10;;;;;;5057837;28;19920;-62
2022/01/04 07:20:20;;;;;;;;;;;15.00;98.20;;;;;;5054707;28;20018;-64
2022/01/04 07:22:46;;;;;;;;;;;;;;;;;;5061938;28;19951;-64
2022/01/04 07:25:11;;;;;;;;;;;15.40;98.30;;;;;;5032824;28;20469;-64
2022/01/04 07:27:38;;;;;;;;;;;;;;;;;;5059789;28;20019;-67
2022/01/04 07:30:04;;;;;;;;;;;15.30;98.30;;;;;;5052420;28;19960;-62
2022/01/04 07:32:30;;;;;;;;;;;;;;;;;;5031070;28;19935;-63
2022/01/04 07:34:56;;;;;;;;;;;15.50;98.30;;;;;;5046111;28;19927;-65
2022/01/04 07:37:22;;;;;;;;;;;15.10;98.20;;;;;;5049735;28;19943;-64
2022/01/04 07:39:48;;;;;;;;;;;15.20;98.30;;;;;;5055286;28;19920;-66
2022/01/04 07:42:14;;;;;;;;;;;;;;;;;;5046587;28;19928;-65
2022/01/04 07:44:40;;;;;;;;;;;;;;;;;;5052977;28;19928;-68
2022/01/04 07:47:06;;;;;;;;;;;;;;;;;;5049159;28;19924;-63
2022/01/04 07:49:32;;;;;;;;;;;15.40;98.30;;;;;;5044850;28;19920;-67
2022/01/04 07:51:58;;;;;;;;;;;;;;;;;;5052634;28;20304;-67
2022/01/04 07:54:24;;;;;;;;;;;15.30;98.30;;;;;;5056196;28;19921;-65
2022/01/04 07:56:51;;;;;;;;;;;;;;;;;;5052811;28;19921;-69
2022/01/04 07:59:17;;;;;;;;;;;;;;;;;;5056822;28;19981;-67
2022/01/04 08:01:43;;;;;;;;;;;15.20;98.30;;;;;;5057554;28;19917;-62
2022/01/04 08:04:09;;;;;;;;;;;15.10;98.30;;;;;;5061841;28;20392;-65
2022/01/04 08:06:35;;;;;;;;;;;15.20;98.30;;;;;;5060480;28;22222;-66
2022/01/04 08:09:01;;;;;;;;;;;15.10;98.30;;;;;;5058238;28;19920;-67
2022/01/04 08:11:26;;;;;;;;;;;15.00;98.30;;;;;;5038327;28;19921;-66
2022/01/04 08:13:52;;;;;;;;;;;;;;;;;;5057637;28;19924;-66
2022/01/04 08:16:18;;;;;;;;;;;15.00;98.30;;;;;;5061651;28;20443;-65
2022/01/04 08:18:44;;;;;;;;;;;;;;;;;;5057610;28;19983;-66
2022/01/04 08:21:10;;;;;;;;;;;15.00;98.30;;;;;;5063294;28;19925;-65
2022/01/04 08:23:36;;;;;;;;;;;15.20;98.40;;;;;;5056762;28;19928;-63
2022/01/04 08:26:02;;;;;;;;;;;15.10;98.50;;;;;;5022107;28;19920;-63
2022/01/04 08:28:27;;;;;;;;;;;15.20;98.50;;;;;;5040933;28;19921;-67
2022/01/04 08:30:53;;;;;;;;;;;15.10;98.50;;;;;;5042270;28;19924;-61
2022/01/04 08:33:19;;;;;;;;;;;15.00;98.50;;;;;;5065237;28;19920;-65
2022/01/04 08:35:45;;;;;;;;;;;;;;;;;;5056189;28;19924;-65
2022/01/04 08:38:10;;;;;;;;;;;15.40;98.40;;;;;;5056457;28;19920;-63
2022/01/04 08:40:36;;;;;;;;;;;15.40;98.60;;;;;;5053563;28;19921;-61
2022/01/04 08:43:02;;;;;;;;;;;15.20;98.40;;;;;;5047281;28;19927;-62
2022/01/04 08:45:28;;;;;;;;;;;15.10;98.40;;;;;;5055737;28;19946;-66
2022/01/04 08:47:56;;;;;;;;;;;15.40;98.50;;;;;;5056427;28;19928;-62
2022/01/04 08:50:22;;;;;;;;;;;15.30;98.50;;;;;;5057262;28;19921;-62
2022/01/04 08:52:54;;;;;;;;;;;15.20;98.40;;;;;;5055731;28;20015;-62
2022/01/04 08:55:20;;;;;;;;;;;15.40;98.40;;;;;;5041864;28;19967;-68
2022/01/04 08:57:46;;;;;;;;;;;15.20;98.20;;;;;;5057181;28;19921;-67
2022/01/04 09:00:12;;;;;;;;;;;;;;;;;;5055380;28;20015;-67
2022/01/04 09:02:37;;;;;;;;;;;15.10;98.30;;;;;;5058942;28;19924;-62
2022/01/04 09:05:03;;;;;;;;;;;15.30;98.40;;;;;;5059553;28;19928;-66
2022/01/04 09:07:29;;;;;;;;;;;15.40;98.40;;;;;;5038504;28;19970;-63
2022/01/04 09:09:55;;;;;;;;;;;15.50;98.50;;;;;;5059023;28;19928;-61
2022/01/04 09:12:24;;;;;;;;;;;15.60;98.40;;;;;;5053662;28;19929;-62
2022/01/04 09:20:00;;;;;;;;;;;15.30;98.40;;;;;;5051627;28;20305;-64
2022/01/04 09:22:25;;;;;;;;;;;15.00;98.20;;;;;;5050607;28;19929;-67
2022/01/04 09:24:51;;;;;;;;;;;15.40;98.20;;;;;;5050797;28;19920;-61
2022/01/04 09:27:17;;;;;;;;;;;15.20;98.30;;;;;;5053698;28;20385;-65
2022/01/04 09:29:43;;;;;;;;;;;;;;;;;;5053848;28;19970;-63
2022/01/04 09:32:13;;;;;;;;;;;15.20;97.90;;;;;;5058283;28;20388;-62
2022/01/04 09:34:39;;;;;;;;;;;15.20;98.00;;;;;;5056671;28;20279;-62
2022/01/04 09:37:05;;;;;;;;;;;;;;;;;;5052309;28;19935;-64
2022/01/04 09:39:30;;;;;;;;;;;15.30;97.70;;;;;;5038261;28;19929;-62
2022/01/04 09:41:59;;;;;;;;;;;;;;;;;;5038659;28;19928;-67
2022/01/04 09:44:25;;;;;;;;;;;15.40;98.00;;;;;;5037757;28;19921;-66
2022/01/04 09:46:52;;;;;;;;;;;15.50;98.00;;;;;;5036513;28;20019;-67
2022/01/04 09:49:18;;;;;;;;;;;;;;;;;;5042322;28;20010;-62
2022/01/04 09:51:44;;;;;;;;;;;15.00;98.10;;;;;;5049822;28;19932;-68
2022/01/04 09:54:10;;;;;;;;;;;15.40;98.10;;;;;;5050430;28;19940;-62
2022/01/04 09:56:36;;;;;;;;;;;15.50;98.30;;;;;;5043680;28;20359;-61
2022/01/04 09:59:02;;;;;;;;;;;;;;;;;;5042640;28;19928;-68
2022/01/04 10:01:28;;;;;;;;;;;15.40;98.40;;;;;;5041200;28;19921;-61
2022/01/04 10:03:54;;;;;;;;;;;15.30;98.40;;;;;;5030026;28;20407;-61
2022/01/04 10:06:20;;;;;;;;;;;15.40;98.50;;;;;;5057243;28;19925;-63
2022/01/04 10:08:48;;;;;;;;;;;15.50;98.20;;;;;;5056575;28;19924;-65
2022/01/04 10:11:14;;;;;;;;;;;15.60;98.00;;;;;;5055842;28;20357;-62
2022/01/04 10:13:40;;;;;;;;;;;15.20;97.90;;;;;;5058112;28;19920;-62
2022/01/04 10:16:16;;;;;;;;;;;15.50;97.90;;;;;;5057726;28;19921;-62
2022/01/04 10:18:41;;;;;;;;;;;15.30;97.80;;;;;;5049838;28;19928;-61
2022/01/04 10:21:08;;;;;;;;;;;;;;;;;;5019952;28;19925;-64
2022/01/04 10:23:42;;;;;;;;;;;15.30;98.00;;;;;;5054403;28;19960;-68
2022/01/04 10:26:07;;;;;;;;;;;15.20;97.90;;;;;;5062036;28;19927;-67
2022/01/04 10:28:37;;;;;;;;;;;15.10;97.90;;;;;;5040152;28;19922;-67
2022/01/04 10:31:04;;;;;;;;;;;15.10;97.90;;;;;;5064759;28;19971;-68
2022/01/04 10:33:34;;;;;;;;;;;15.30;98.00;;;;;;5062574;28;19970;-65
2022/01/04 10:36:00;;;;;;;;;;;15.00;97.90;;;;;;5045403;28;20396;-67
2022/01/04 10:38:26;;;;;;;;;;;;;;;;;;5055645;28;20377;-62
2022/01/04 10:41:07;;;;;;;;;;;14.90;97.80;;;;;;5036670;28;19966;-62
2022/01/04 10:43:33;;;;;;;;;;;14.90;97.90;;;;;;5063054;28;19928;-63
2022/01/04 10:46:00;;;;;;;;;;;15.20;97.80;;;;;;5064476;28;19924;-68
2022/01/04 10:48:30;;;;;;;;;;;14.80;97.70;;;;;;5057415;28;19974;-68
2022/01/04 10:50:56;;;;;;;;;;;15.00;97.80;;;;;;5053613;28;20402;-68
2022/01/04 10:53:23;;;;;;;;;;;15.00;97.80;;;;;;5043129;28;20056;-61
2022/01/04 10:55:52;;;;;;;;;;;14.80;97.90;;;;;;5024639;28;20119;-62
2022/01/04 10:58:19;;;;;;;;;;;14.70;97.70;;;;;;5045974;28;19927;-64
2022/01/04 11:00:45;;;;;;;;;;;;;;;;;;5042213;28;19936;-65
2022/01/04 11:03:11;;;;;;;;;;;14.40;97.60;;;;;;5058684;28;19925;-62
2022/01/04 11:05:38;;;;;;;;;;;14.60;97.70;;;;;;5041887;28;20358;-61
2022/01/04 11:08:04;;;;;;;;;;;14.70;97.40;;;;;;5037962;28;20458;-61
2022/01/04 11:10:34;;;;;;;;;;;14.40;97.70;;;;;;5065434;28;20360;-67
2022/01/04 11:13:00;;;;;;;;;;;14.50;97.70;;;;;;5064110;28;19975;-62
2022/01/04 11:15:26;;;;;;;;;;;14.70;97.70;;;;;;5066030;28;20014;-61
2022/01/04 11:17:52;;;;;;;;;;;14.50;97.70;;;;;;5060126;28;19916;-61
2022/01/04 11:20:18;;;;;;;;;;;;;;;;;;5057699;28;19975;-61
2022/01/04 11:22:44;;;;;;;;;;;14.60;97.60;;;;;;5055610;28;20015;-62
2022/01/04 11:25:10;;;;;;;;;;;;;;;;;;5060827;28;19954;-65
2022/01/04 11:27:36;;;;;;;;;;;14.30;97.50;;;;;;5059813;28;19943;-61
2022/01/04 11:30:06;;;;;;;;;;;14.70;97.70;;;;;;5043461;28;20369;-68
2022/01/04 11:32:32;;;;;;;;;;;14.70;97.60;;;;;;5063315;28;19921;-63
2022/01/04 11:35:02;;;;;;;;;;;14.60;97.60;;;;;;5058303;28;20007;-66
2022/01/04 11:37:28;;;;;;;;;;;14.50;97.60;;;;;;5054677;28;20320;-64
2022/01/04 11:39:54;;;;;;;;;;;;;;;;;;5060536;28;19921;-65
2022/01/04 11:42:34;;;;;;;;;;;14.50;97.60;;;;;;5056849;28;20007;-62
2022/01/04 11:45:00;;;;;;;;;;;14.50;97.50;;;;;;5044157;28;19925;-63
2022/01/04 11:47:26;;;;;;;;;;;;;;;;;;5025108;28;19931;-65
2022/01/04 11:49:52;;;;;;;;;;;;;;;;;;5029142;28;19936;-63
2022/01/04 11:52:35;;;;;;;;;;;14.70;97.30;;;;;;5045996;28;19921;-62
2022/01/04 11:55:21;;;;;;;;;;;14.40;97.20;;;;;;5042360;28;20271;-63
2022/01/04 11:57:48;;;;;;;;;;;14.80;97.40;;;;;;5032088;28;19947;-62
2022/01/04 12:00:22;;;;;;;;;;;14.80;97.00;;;;;;5051743;28;19924;-66
2022/01/04 12:03:00;;;;;;;;;;;14.70;97.50;;;;;;5046633;28;19920;-67
2022/01/04 12:05:26;;;;;;;;;;;;;;;;;;5055378;28;19928;-65
2022/01/04 12:07:52;;;;;;;;;;;;;;;;;;5059937;28;19945;-68
2022/01/04 12:10:18;;;;;;;;;;;;;;;;;;5050919;28;19920;-65
2022/01/04 12:12:45;;;;;;;;;;;;;;;;;;5059598;28;19929;-64
2022/01/04 12:15:30;;;;;;;;;;;15.00;97.60;;;;;;5054808;28;19925;-64
2022/01/04 12:17:57;;;;;;;;;;;15.10;97.40;;;;;;5052079;28;19928;-65
2022/01/04 12:20:23;;;;;;;;;;;;;;;;;;5056874;28;19927;-65
2022/01/04 12:22:49;;;;;;;;;;;14.90;97.50;;;;;;5057037;28;19920;-61
2022/01/04 12:25:15;;;;;;;;;;;15.00;97.50;;;;;;5048425;28;19921;-64
2022/01/04 12:27:41;;;;;;;;;;;;;;;;;;5059881;28;20008;-63
2022/01/04 12:30:22;;;;;;;;;;;15.10;97.60;;;;;;5053316;28;19928;-63
2022/01/04 12:32:48;;;;;;;;;;;15.10;97.60;;;;;;5054288;28;19921;-65
2022/01/04 12:35:16;;;;;;;;;;;;;;;;;;5055279;28;19921;-66
2022/01/04 12:37:42;;;;;;;;;;;15.30;97.70;;;;;;5056239;28;19924;-62
2022/01/04 12:40:08;;;;;;;;;;;15.30;97.70;;;;;;5055848;28;20352;-67
2022/01/04 12:42:33;;;;;;;;;;;15.20;97.70;;;;;;5056749;28;19971;-62
2022/01/04 12:44:59;;;;;;;;;;;15.10;97.70;;;;;;5062907;28;19978;-62
2022/01/04 12:47:25;;;;;;;;;;;;;;;;;;5064140;28;19947;-67
2022/01/04 12:49:51;;;;;;;;;;;15.30;97.80;;;;;;5062890;28;20259;-67
2022/01/04 12:52:20;;;;;;;;;;;;;;;;;;5054418;28;20333;-67
2022/01/04 12:54:46;;;;;;;;;;;;;;;;;;5056294;28;20340;-65
2022/01/04 12:57:12;;;;;;;;;;;15.20;97.70;;;;;;5062604;28;20438;-67
2022/01/04 12:59:38;;;;;;;;;;;;;;;;;;5063667;28;20016;-64
2022/01/04 13:02:16;;;;;;;;;;;15.20;97.70;;;;;;5054842;28;19920;-61
2022/01/04 13:04:43;;;;;;;;;;;;;;;;;;5058717;28;19928;-65
2022/01/04 13:07:13;;;;;;;;;;;15.30;97.80;;;;;;5063403;28;20528;-67
2022/01/04 13:09:39;;;;;;;;;;;15.30;97.80;;;;;;5062365;28;19932;-61
2022/01/04 13:12:05;;;;;;;;;;;;;;;;;;5060414;28;19929;-67
2022/01/04 13:14:31;;;;;;;;;;;15.10;97.70;;;;;;5058333;28;19920;-61
2022/01/04 13:17:00;;;;;;;;;;;15.00;97.70;;;;;;5054626;28;19928;-67
2022/01/04 13:19:26;;;;;;;;;;;15.20;97.90;;;;;;5059551;28;19920;-61
2022/01/04 13:21:53;;;;;;;;;;;15.20;97.90;;;;;;5056693;28;19928;-61
2022/01/04 13:24:31;;;;;;;;;;;14.90;97.80;;;;;;5034621;28;20373;-61
2022/01/04 13:27:15;;;;;;;;;;;15.20;97.90;;;;;;5054144;28;20285;-61
2022/01/04 13:29:41;;;;;;;;;;;;;;;;;;5054268;28;20295;-62
2022/01/04 13:32:07;;;;;;;;;;;15.10;97.90;;;;;;5054032;28;19920;-62
2022/01/04 13:34:33;;;;;;;;;;;15.50;98.00;;;;;;5052643;28;19928;-61
2022/01/04 13:36:59;;;;;;;;;;;15.10;97.80;;;;;;5053119;28;19924;-62
2022/01/04 13:39:25;;;;;;;;;;;15.30;97.70;;;;;;5033878;28;19974;-65
2022/01/04 13:41:51;;;;;;;;;;;15.30;97.80;;;;;;5025252;28;20057;-63
2022/01/04 13:44:16;;;;;;;;;;;15.30;97.90;;;;;;5051981;28;19921;-67
2022/01/04 13:46:42;;;;;;;;;;;15.20;97.80;;;;;;5035336;28;19966;-61
2022/01/04 13:49:08;;;;;;;;;;;15.30;97.90;;;;;;5062660;28;19966;-62
2022/01/04 13:51:35;;;;;;;;;;;15.20;97.90;;;;;;5074051;28;19966;-62
2022/01/04 13:54:08;;;;;;;;;;;15.10;98.00;;;;;;5073746;28;20373;-61
2022/01/04 13:56:33;;;;;;;;;;;15.30;97.90;;;;;;5059726;28;20042;-61
2022/01/04 13:59:00;;;;;;;;;;;15.20;97.90;;;;;;5053629;28;19935;-62
2022/01/04 14:01:35;;;;;;;;;;;15.10;97.80;;;;;;5055055;28;20978;-61
2022/01/04 14:04:12;;;;;;;;;;;15.30;97.50;;;;;;5047534;28;19937;-62
2022/01/04 14:06:39;;;;;;;;;;;;;;;;;;5033220;28;19922;-64
2022/01/04 14:09:05;;;;;;;;;;;;;;;;;;5050538;28;19935;-66
2022/01/04 14:11:34;;;;;;;;;;;15.30;97.70;;;;;;5059381;28;20370;-62
2022/01/04 14:14:00;;;;;;;;;;;;;;;;;;5054447;28;19928;-62
2022/01/04 14:16:28;;;;;;;;;;;15.40;97.50;;;;;;5052361;28;20297;-65
2022/01/04 14:19:05;;;;;;;;;;;15.40;97.50;;;;;;5046082;28;20327;-65
2022/01/04 14:21:32;;;;;;;;;;;;;;;;;;5050911;28;20052;-66
2022/01/04 14:23:59;;;;;;;;;;;15.30;97.40;;;;;;5052253;28;19920;-63
2022/01/04 14:26:27;;;;;;;;;;;;;;;;;;5050077;28;19971;-68
2022/01/04 14:28:53;;;;;;;;;;;;;;;;;;5049071;28;19924;-65
2022/01/04 14:31:19;;;;;;;;;;;15.30;97.40;;;;;;5051863;28;19924;-68
2022/01/04 14:33:45;;;;;;;;;;;;;;;;;;5051490;28;19936;-68
2022/01/04 14:36:12;;;;;;;;;;;;;;;;;;5030553;28;19979;-66
2022/01/04 14:38:38;;;;;;;;;;;15.10;97.40;;;;;;5051731;28;19920;-66
2022/01/04 14:41:04;;;;;;;;;;;15.20;97.40;;;;;;5035579;28;19924;-62
2022/01/04 14:43:31;;;;;;;;;;;15.50;97.50;;;;;;5048331;28;20278;-66
2022/01/04 14:45:59;;;;;;;;;;;;;;;;;;5051801;28;20717;-62
2022/01/04 14:48:25;;;;;;;;;;;;;;;;;;5050483;28;19928;-64
2022/01/04 14:50:51;;;;;;;;;;;;;;;;;;5050137;28;19925;-62
2022/01/04 14:53:18;;;;;;;;;;;;;;;;;;5064432;28;19921;-63
2022/01/04 14:55:44;;;;;;;;;;;;;;;;;;5057709;28;19921;-62
2022/01/04 14:58:10;;;;;;;;;;;;;;;;;;5042562;28;19920;-66